Time;durP1;ratioP1;P1;durP2;ratioP2;P2;SDS_P1;SDS_P2;PMS_P1;PMS_P2;Temp;Humidity;BMP_temperature;BMP_pressure;BME280_temperature;BME280_humidity;BME280_pressure;Samples;Min_cycle;Max_cycle;Signal;HPM_P1;HPM_P2
2023/09/28 00:02:09;;;;;;;1.10;1.00;;;;;;;-143.84;88.53;45096.66;5088224;28;20447;-58
2023/09/28 00:04:35;;;;;;;1.17;0.70;;;;;;;-143.84;89.00;45110.00;5088236;28;20443;-58
2023/09/28 00:07:03;;;;;;;0.90;0.80;;;;;;;-143.84;89.41;45073.81;5088004;28;20448;-58
2023/09/28 00:09:48;;;;;;;0.80;0.40;;;;;;;-143.84;89.70;45085.25;5087776;28;20444;-58
2023/09/28 00:15:19;;;;;;;0.80;0.40;;;;;;;-143.84;90.04;45071.91;5091786;28;20474;-58
2023/09/28 00:18:05;;;;;;;1.00;0.80;;;;;;;-143.84;90.24;45087.16;5091741;28;20592;-58
2023/09/28 00:20:32;;;;;;;0.80;0.40;;;;;;;-143.84;89.87;45098.56;5091802;28;20444;-58
2023/09/28 00:23:17;;;;;;;0.90;0.50;;;;;;;-143.84;89.78;45115.72;5091509;28;20436;-58
2023/09/28 00:25:44;;;;;;;1.00;0.40;;;;;;;-143.84;89.69;45079.53;5091302;28;20459;-58
2023/09/28 00:28:10;;;;;;;1.10;0.87;;;;;;;-143.84;89.65;45100.47;5091225;28;20428;-58
2023/09/28 00:30:37;;;;;;;0.80;0.40;;;;;;;-143.84;89.81;45089.06;5091216;28;20517;-58
2023/09/28 00:33:05;;;;;;;1.20;1.10;;;;;;;-143.84;90.35;45094.78;5091408;28;20440;-58
2023/09/28 00:35:33;;;;;;;0.90;0.50;;;;;;;-143.84;90.05;45092.88;5091221;28;20447;-58
2023/09/28 00:37:59;;;;;;;1.00;0.70;;;;;;;-143.84;90.07;45090.97;5091285;28;20437;-58
2023/09/28 00:40:31;;;;;;;0.83;0.53;;;;;;;-143.84;89.50;45100.47;5091268;28;20494;-58
2023/09/28 00:43:16;;;;;;;1.20;0.77;;;;;;;-143.84;89.61;45150.00;5091249;28;20448;-58
2023/09/28 00:45:43;;;;;;;0.90;0.50;;;;;;;-143.84;89.77;45106.19;5090956;28;20455;-58
2023/09/28 00:50:59;;;;;;;0.80;0.40;;;;;;;-143.84;89.36;45111.91;5091088;28;21055;-58
2023/09/28 00:53:26;;;;;;;0.97;0.60;;;;;;;-143.84;89.79;45111.91;5091064;28;20484;-58
2023/09/28 00:58:40;;;;;;;0.80;0.40;;;;;;;-143.84;89.95;45110.00;5091043;28;20925;-58
2023/09/28 01:01:10;;;;;;;0.90;0.60;;;;;;;-143.84;90.06;45108.09;5090610;28;20961;-58
2023/09/28 01:03:39;;;;;;;1.40;0.60;;;;;;;-143.84;90.04;45106.19;5091068;28;20559;-58
2023/09/28 01:06:07;;;;;;;0.90;0.60;;;;;;;-143.84;90.18;45115.72;5090978;28;20501;-58
2023/09/28 01:11:20;;;;;;;0.80;0.50;;;;;;;-143.84;90.66;45100.47;5090810;28;20447;-58
2023/09/28 01:19:55;;;;;;;0.90;0.50;;;;;;;-143.84;91.48;45106.19;5090253;28;20579;-58
2023/09/28 01:22:22;;;;;;;0.87;0.53;;;;;;;-143.84;91.42;45106.19;5089327;28;20903;-58
2023/09/28 01:24:49;;;;;;;0.93;0.67;;;;;;;-143.84;91.47;45073.81;5090178;28;20946;-58
2023/09/28 01:27:15;;;;;;;0.90;0.50;;;;;;;-143.84;91.29;45098.56;5090088;28;20451;-58
2023/09/28 01:32:27;;;;;;;0.90;0.50;;;;;;;-143.84;91.05;45079.53;5090198;28;20427;-58
2023/09/28 01:34:53;;;;;;;0.80;0.43;;;;;;;-143.84;90.98;45098.56;5089816;28;20475;-58
2023/09/28 01:37:24;;;;;;;0.80;0.50;;;;;;;-143.84;90.61;45070.00;5089739;28;20511;-58
2023/09/28 01:39:52;;;;;;;1.00;0.90;;;;;;;-143.84;90.57;45096.66;5089953;28;20451;-58
2023/09/28 01:42:19;;;;;;;2.27;0.60;;;;;;;-143.84;90.43;45111.91;5089942;28;20870;-58
2023/09/28 01:44:46;;;;;;;0.90;0.60;;;;;;;-143.84;90.24;45113.81;5089880;28;20455;-58
2023/09/28 01:47:31;;;;;;;0.80;0.40;;;;;;;-143.84;90.05;45110.00;5089770;28;20485;-58
2023/09/28 01:49:59;;;;;;;0.97;0.83;;;;;;;-143.84;89.70;45092.88;5071495;28;20590;-58
2023/09/28 01:52:25;;;;;;;1.47;0.80;;;;;;;-143.84;89.79;45096.66;5089540;28;20440;-58
2023/09/28 01:54:54;;;;;;;1.43;0.63;;;;;;;-143.84;89.53;45115.72;5089784;28;20487;-58
2023/09/28 01:57:20;;;;;;;0.90;0.63;;;;;;;-143.84;89.70;45071.91;5089540;28;20451;-58
2023/09/28 01:59:47;;;;;;;0.87;0.67;;;;;;;-143.84;89.62;45090.97;5089467;28;20498;-58
2023/09/28 02:02:34;;;;;;;1.30;0.80;;;;;;;-143.84;89.90;45098.56;5089531;28;20443;-58
2023/09/28 02:05:03;;;;;;;1.10;0.90;;;;;;;-143.84;89.53;45102.38;5089481;28;20456;-58
2023/09/28 02:07:30;;;;;;;0.80;0.50;;;;;;;-143.84;89.45;45108.09;5089699;28;20961;-58
2023/09/28 02:09:58;;;;;;;0.80;0.50;;;;;;;-143.84;89.46;45075.72;5089266;28;20444;-58
2023/09/28 02:12:27;;;;;;;0.83;0.57;;;;;;;-143.84;89.45;45123.34;5089617;28;20444;-58
2023/09/28 02:17:57;;;;;;;0.90;0.60;;;;;;;-143.84;89.26;45102.38;5069319;28;20471;-58
2023/09/28 02:20:24;;;;;;;0.90;0.57;;;;;;;-143.84;89.44;45098.56;5068878;28;20440;-58
2023/09/28 02:22:52;;;;;;;0.80;0.50;;;;;;;-143.84;89.31;45092.88;5068925;28;20540;-58
2023/09/28 02:25:21;;;;;;;0.80;0.50;;;;;;;-143.84;89.18;45108.09;5068667;28;20452;-58
2023/09/28 02:27:49;;;;;;;1.03;0.90;;;;;;;-143.84;88.88;45073.81;5068973;28;20433;-58
2023/09/28 02:30:19;;;;;;;0.90;0.50;;;;;;;-143.84;88.53;45079.53;5068812;28;20452;-58
2023/09/28 02:32:47;;;;;;;1.03;0.40;;;;;;;-143.84;88.49;45108.09;5068729;28;20445;-58
2023/09/28 02:35:16;;;;;;;0.80;0.47;;;;;;;-143.84;88.25;45111.91;5068557;28;20476;-58
2023/09/28 02:37:44;;;;;;;0.90;0.67;;;;;;;-143.84;88.27;45104.28;5068708;28;20476;-58
2023/09/28 02:42:57;;;;;;;0.80;0.50;;;;;;;-143.84;87.68;45089.06;5068836;28;20455;-58
2023/09/28 02:48:09;;;;;;;1.20;0.40;;;;;;;-143.84;87.09;45090.97;5068817;28;20427;-58
2023/09/28 02:53:21;;;;;;;0.80;0.40;;;;;;;-143.84;86.88;45102.38;5068596;28;20427;-58
2023/09/28 02:55:47;;;;;;;2.00;0.67;;;;;;;-143.84;86.85;45104.28;5068354;28;20534;-58
2023/09/28 02:58:16;;;;;;;0.80;0.40;;;;;;;-143.84;86.62;45117.63;5068320;28;20452;-58
2023/09/28 03:00:42;;;;;;;0.80;0.50;;;;;;;-143.84;86.28;45104.28;5068573;28;20453;-58
2023/09/28 03:03:09;;;;;;;1.30;0.50;;;;;;;-143.84;86.24;45104.28;5068350;28;20536;-58
2023/09/28 03:05:38;;;;;;;0.80;0.43;;;;;;;-143.84;85.85;45100.47;5068371;28;20436;-58
2023/09/28 03:08:09;;;;;;;0.80;0.50;;;;;;;-143.84;85.76;45098.56;5068470;28;20460;-58
2023/09/28 03:10:39;;;;;;;0.80;0.40;;;;;;;-143.84;85.62;45090.97;5068649;28;20479;-58
2023/09/28 03:13:06;;;;;;;1.20;0.50;;;;;;;-143.84;85.68;45090.97;5068354;28;20456;-58
2023/09/28 03:15:35;;;;;;;0.80;0.50;;;;;;;-143.84;85.61;45081.44;5068324;28;20483;-58
2023/09/28 03:18:21;;;;;;;0.90;0.60;;;;;;;-143.84;85.72;45123.34;5068304;28;20551;-58
2023/09/28 03:20:48;;;;;;;0.90;0.60;;;;;;;-143.84;85.60;45083.34;5068360;28;20482;-58
2023/09/28 03:23:15;;;;;;;0.80;0.40;;;;;;;-143.84;85.68;45110.00;5068351;28;20539;-58
2023/09/28 03:25:42;;;;;;;1.00;0.70;;;;;;;-143.84;85.87;45094.78;5067735;28;20503;-58
2023/09/28 03:28:10;;;;;;;0.80;0.43;;;;;;;-143.84;86.33;45129.03;5068345;28;20447;-58
2023/09/28 03:30:37;;;;;;;0.80;0.40;;;;;;;-143.84;86.48;45096.66;5068741;28;20443;-58
2023/09/28 03:33:05;;;;;;;0.80;0.43;;;;;;;-143.84;86.43;45083.34;5068649;28;20467;-58
2023/09/28 03:35:31;;;;;;;0.80;0.50;;;;;;;-143.84;86.14;45089.06;5068080;28;20477;-58
2023/09/28 03:38:17;;;;;;;0.87;0.53;;;;;;;-143.84;86.49;45098.56;5068299;28;20465;-57
2023/09/28 03:40:44;;;;;;;0.90;0.70;;;;;;;-143.84;86.17;45106.19;5068362;28;21041;-58
2023/09/28 03:43:12;;;;;;;0.90;0.53;;;;;;;-143.84;86.11;45110.00;5068563;28;20852;-58
2023/09/28 03:45:41;;;;;;;0.90;0.63;;;;;;;-143.84;86.29;45110.00;5069048;28;20459;-58
2023/09/28 03:48:08;;;;;;;0.80;0.40;;;;;;;-143.84;86.21;45108.09;5071803;28;20453;-58
2023/09/28 03:50:35;;;;;;;1.43;0.63;;;;;;;-143.84;86.53;45098.56;5071772;28;20444;-58
2023/09/28 03:53:02;;;;;;;0.87;0.50;;;;;;;-143.84;86.82;45119.53;5080448;28;20442;-58
2023/09/28 03:55:49;;;;;;;0.90;0.50;;;;;;;-143.84;87.05;45098.56;5089084;28;20862;-58
2023/09/28 04:01:20;;;;;;;0.90;0.70;;;;;;;-143.84;87.11;45108.09;5090728;28;20442;-58
2023/09/28 04:03:48;;;;;;;1.80;0.63;;;;;;;-143.84;87.31;45106.19;5091472;28;20435;-58
2023/09/28 04:06:15;;;;;;;0.90;0.63;;;;;;;-143.84;87.00;45100.47;5091438;28;21015;-58
2023/09/28 04:11:28;;;;;;;0.80;0.40;;;;;;;-143.84;87.31;45117.63;5091736;28;20428;-58
2023/09/28 04:13:55;;;;;;;0.80;0.40;;;;;;;-143.84;87.42;45125.22;5091532;28;20472;-58
2023/09/28 04:16:24;;;;;;;0.80;0.50;;;;;;;-143.84;87.58;45119.53;5091782;28;20465;-58
2023/09/28 04:18:51;;;;;;;0.90;0.67;;;;;;;-143.84;87.90;45119.53;5090943;28;20524;-58
2023/09/28 04:21:18;;;;;;;1.10;0.60;;;;;;;-143.84;87.56;45127.13;5091019;28;20497;-58
2023/09/28 04:23:45;;;;;;;0.80;0.30;;;;;;;-143.84;87.33;45121.44;5090940;28;21009;-57
2023/09/28 04:26:12;;;;;;;0.90;0.57;;;;;;;-143.84;86.93;45110.00;5090851;28;20436;-57
2023/09/28 04:31:43;;;;;;;0.80;0.30;;;;;;;-143.84;86.66;45117.63;5090812;28;20442;-57
2023/09/28 04:34:13;;;;;;;1.77;0.60;;;;;;;-143.84;86.30;45110.00;5091486;28;20959;-57
2023/09/28 04:36:40;;;;;;;0.80;0.40;;;;;;;-143.84;86.02;45115.72;5089151;28;20452;-58
2023/09/28 04:39:26;;;;;;;0.83;0.50;;;;;;;-143.84;85.91;45098.56;5091140;28;20439;-58
2023/09/28 04:41:54;;;;;;;0.90;0.50;;;;;;;-143.84;85.80;45115.72;5091070;28;20435;-58
2023/09/28 04:44:21;;;;;;;1.00;0.73;;;;;;;-143.84;85.67;45096.66;5090882;28;20512;-58
2023/09/28 04:46:50;;;;;;;0.80;0.57;;;;;;;-143.84;85.42;45089.06;5091029;28;20436;-58
2023/09/28 04:49:36;;;;;;;0.90;0.70;;;;;;;-143.84;85.44;45125.22;5091160;28;20467;-58
2023/09/28 04:52:03;;;;;;;0.80;0.40;;;;;;;-143.84;85.14;45089.06;5090929;28;20444;-58
2023/09/28 04:57:20;;;;;;;0.80;0.40;;;;;;;-143.84;84.81;45121.44;5089825;28;20945;-57
2023/09/28 04:59:47;;;;;;;0.80;0.40;;;;;;;-143.84;84.28;45102.38;5090631;28;20451;-58
2023/09/28 05:02:34;;;;;;;1.27;0.50;;;;;;;-143.84;83.93;45108.09;5090937;28;20471;-58
2023/09/28 05:05:01;;;;;;;0.80;0.40;;;;;;;-143.84;83.29;45092.88;5090770;28;20432;-58
2023/09/28 05:10:12;;;;;;;0.80;0.50;;;;;;;-143.84;82.35;45102.38;5090613;28;20423;-58
2023/09/28 05:12:40;;;;;;;0.90;0.40;;;;;;;-143.84;80.91;45106.19;5090500;28;20509;-58
2023/09/28 05:15:25;;;;;;;2.13;0.80;;;;;;;-143.84;80.06;45098.56;5090206;28;20480;-58
2023/09/28 05:17:55;;;;;;;1.00;0.80;;;;;;;-143.84;79.40;45085.25;5090322;28;20455;-58
2023/09/28 05:20:22;;;;;;;0.80;0.40;;;;;;;-143.84;78.87;45100.47;5090054;28;20488;-58
2023/09/28 05:23:08;;;;;;;1.10;0.60;;;;;;;-143.84;78.14;45079.53;5090589;28;20432;-58
2023/09/28 05:28:38;;;;;;;1.43;0.50;;;;;;;-143.84;76.02;45079.53;5090240;28;20423;-58
2023/09/28 05:31:06;;;;;;;1.00;0.70;;;;;;;-143.84;75.50;45106.19;5090415;28;20440;-58
2023/09/28 05:33:34;;;;;;;0.90;0.50;;;;;;;-143.84;74.39;45081.44;5090190;28;20436;-58
2023/09/28 05:36:01;;;;;;;0.80;0.40;;;;;;;-143.84;72.79;45089.06;5089870;28;20475;-58
2023/09/28 05:38:47;;;;;;;0.90;0.60;;;;;;;-143.84;72.00;45070.00;5090062;28;20982;-58
2023/09/28 05:41:14;;;;;;;0.90;0.60;;;;;;;-143.84;71.35;45047.16;5090055;28;20497;-58
2023/09/28 05:43:41;;;;;;;1.47;0.50;;;;;;;-143.84;70.24;45066.22;5089767;28;20446;-58
2023/09/28 05:49:14;;;;;;;1.80;0.77;;;;;;;-143.84;68.17;45049.06;5090089;28;20435;-58
2023/09/28 05:51:41;;;;;;;1.00;0.70;;;;;;;-143.84;68.46;45075.72;5090002;28;20567;-58
2023/09/28 05:54:08;;;;;;;0.90;0.53;;;;;;;-143.84;67.84;45066.22;5090064;28;20436;-58
2023/09/28 05:56:54;;;;;;;1.07;0.43;;;;;;;-143.84;68.09;45050.97;5089938;28;20486;-58
2023/09/28 05:59:21;;;;;;;2.20;0.83;;;;;;;-143.84;67.57;45060.50;5089441;28;20451;-58
2023/09/28 06:02:06;;;;;;;0.80;0.40;;;;;;;-143.84;68.23;45062.41;5089932;28;21023;-58
2023/09/28 06:04:35;;;;;;;0.80;0.40;;;;;;;-143.84;67.99;45077.63;5089554;28;20448;-58
2023/09/28 06:07:02;;;;;;;0.80;0.33;;;;;;;-143.84;68.40;45052.88;5089511;28;20443;-58
2023/09/28 06:09:29;;;;;;;1.20;1.00;;;;;;;-143.84;69.06;45075.72;5088813;28;20493;-58
2023/09/28 06:12:15;;;;;;;0.90;0.50;;;;;;;-143.84;69.48;45066.22;5089547;28;20487;-58
2023/09/28 06:14:42;;;;;;;0.90;0.50;;;;;;;-143.84;68.87;45064.31;5089133;28;20467;-58
2023/09/28 06:17:09;;;;;;;1.37;0.67;;;;;;;-143.84;68.49;45064.31;5088937;28;20448;-58
2023/09/28 06:19:38;;;;;;;1.53;0.60;;;;;;;-143.84;68.01;45062.41;5088896;28;20478;-58
2023/09/28 06:22:09;;;;;;;2.00;0.60;;;;;;;-143.84;67.30;45049.06;5088754;28;20542;-58
2023/09/28 06:24:37;;;;;;;0.90;0.40;;;;;;;-143.84;66.06;45052.88;5089032;28;20440;-58
2023/09/28 06:27:05;;;;;;;0.90;0.50;;;;;;;-143.84;65.37;45050.97;5089184;28;20448;-58
2023/09/28 06:29:32;;;;;;;0.97;0.70;;;;;;;-143.84;65.05;45066.22;5089166;28;20447;-58
2023/09/28 06:34:45;;;;;;;0.80;0.50;;;;;;;-143.84;62.51;45041.44;5089054;28;20408;-58
2023/09/28 06:37:31;;;;;;;1.20;0.60;;;;;;;-143.84;63.03;45043.34;5088736;28;20444;-58
2023/09/28 06:42:42;;;;;;;0.80;0.40;;;;;;;-143.84;61.71;45039.53;5089032;28;20431;-58
2023/09/28 06:45:10;;;;;;;0.80;0.40;;;;;;;-143.84;61.99;45033.84;5088955;28;20440;-57
2023/09/28 06:47:38;;;;;;;0.90;0.50;;;;;;;-143.84;61.78;45043.34;5088986;28;20479;-58
2023/09/28 06:52:52;;;;;;;1.10;0.57;;;;;;;-143.84;60.07;45022.41;5088985;28;20485;-58
2023/09/28 06:55:37;;;;;;;0.90;0.47;;;;;;;-143.84;60.61;45028.13;5088342;28;20491;-58
2023/09/28 06:58:06;;;;;;;1.07;0.50;;;;;;;-143.84;59.89;45022.41;5088700;28;20436;-58
2023/09/28 07:00:33;;;;;;;0.90;0.50;;;;;;;-143.84;59.76;45041.44;5088851;28;21010;-58
2023/09/28 07:03:00;;;;;;;0.90;0.67;;;;;;;-143.84;59.94;45024.31;5088832;28;20447;-58
2023/09/28 07:05:47;;;;;;;1.00;0.80;;;;;;;-143.84;60.17;45014.78;5088697;28;20439;-58
2023/09/28 07:08:14;;;;;;;0.80;0.40;;;;;;;-143.84;59.54;45047.16;5088818;28;20444;-58
2023/09/28 07:10:41;;;;;;;0.80;0.40;;;;;;;-143.84;59.36;45014.78;5088378;28;20435;-58
2023/09/28 07:13:09;;;;;;;0.90;0.60;;;;;;;-143.84;59.79;45022.41;5088513;28;20440;-58
2023/09/28 07:15:37;;;;;;;0.87;0.47;;;;;;;-143.84;59.14;45031.94;5088473;28;20561;-58
2023/09/28 07:18:04;;;;;;;2.00;1.00;;;;;;;-143.84;59.90;45045.25;5088413;28;20444;-58
2023/09/28 07:20:33;;;;;;;0.80;0.40;;;;;;;-143.84;60.01;45030.03;5089437;28;20925;-58
2023/09/28 07:23:00;;;;;;;0.87;0.40;;;;;;;-143.84;59.79;45049.06;5092631;28;20448;-58
2023/09/28 07:25:27;;;;;;;0.80;0.40;;;;;;;-143.84;59.39;45043.34;5092534;28;20948;-58
2023/09/28 07:27:55;;;;;;;0.90;0.50;;;;;;;-143.84;59.54;45049.06;5092880;28;20537;-58
2023/09/28 07:33:07;;;;;;;1.00;0.70;;;;;;;-143.84;58.08;45007.19;5092433;28;20489;-58
2023/09/28 07:38:38;;;;;;;0.80;0.40;;;;;;;-143.84;59.96;45014.78;5092328;28;20476;-58
2023/09/28 07:41:05;;;;;;;0.80;0.40;;;;;;;-143.84;58.30;45028.13;5092304;28;20451;-58
2023/09/28 07:43:32;;;;;;;0.80;0.50;;;;;;;-143.84;57.86;45050.97;5092524;28;20511;-58
2023/09/28 07:46:18;;;;;;;1.43;0.70;;;;;;;-143.84;55.91;45001.47;5092305;28;20447;-59
2023/09/28 07:48:45;;;;;;;0.90;0.50;;;;;;;-143.84;56.03;45014.78;5092188;28;20500;-58
2023/09/28 07:51:15;;;;;;;0.90;0.60;;;;;;;-143.84;53.69;45022.41;5091980;28;20501;-58
2023/09/28 07:56:44;;;;;;;2.03;0.50;;;;;;;-143.84;52.07;44982.41;5092219;28;20477;-58
2023/09/28 07:59:11;;;;;;;1.67;0.50;;;;;;;-143.84;52.38;45005.28;5091889;28;20443;-58
2023/09/28 08:01:39;;;;;;;0.90;0.53;;;;;;;-143.84;51.62;45003.38;5091749;28;20436;-58
2023/09/28 08:04:06;;;;;;;7.20;0.80;;;;;;;-143.84;51.87;45001.47;5091801;28;20443;-58
2023/09/28 08:06:54;;;;;;;1.27;0.60;;;;;;;-143.84;51.23;44993.84;5091768;28;20442;-58
2023/09/28 08:09:23;;;;;;;0.90;0.50;;;;;;;-143.84;50.96;44991.94;5091996;28;20451;-58
2023/09/28 08:11:50;;;;;;;0.90;0.50;;;;;;;-143.84;50.37;44982.41;5091732;28;20504;-58
2023/09/28 08:14:17;;;;;;;0.90;0.40;;;;;;;-143.84;50.80;44999.56;5091534;28;20497;-58
2023/09/28 08:16:45;;;;;;;0.93;0.60;;;;;;;-143.84;48.48;45010.97;5091495;28;20565;-58
2023/09/28 08:21:58;;;;;;;1.10;0.67;;;;;;;-143.84;46.82;44980.53;5091588;28;20423;-58
2023/09/28 08:24:25;;;;;;;1.00;0.60;;;;;;;-143.84;46.85;44955.75;5091453;28;20479;-58
2023/09/28 08:26:52;;;;;;;1.13;0.60;;;;;;;-143.84;45.73;44990.03;5091577;28;20493;-58
2023/09/28 08:29:20;;;;;;;2.90;0.97;;;;;;;-143.84;45.30;44988.13;5091285;28;20432;-58
2023/09/28 08:31:47;;;;;;;0.90;0.60;;;;;;;-143.84;44.87;45005.28;5091346;28;20435;-58
2023/09/28 08:34:14;;;;;;;0.90;0.50;;;;;;;-143.84;45.17;44999.56;5091178;28;20444;-58
2023/09/28 08:36:41;;;;;;;1.00;0.63;;;;;;;-143.84;45.23;44980.53;5091365;28;20487;-58
2023/09/28 08:39:28;;;;;;;0.80;0.50;;;;;;;-143.84;45.35;44976.72;5091145;28;20440;-58
2023/09/28 08:44:41;;;;;;;0.90;0.57;;;;;;;-143.84;44.36;44953.88;5091517;28;20422;-58
2023/09/28 08:47:15;;;;;;;0.87;0.53;;;;;;;-143.84;43.97;44967.19;5091019;28;21006;-58
2023/09/28 08:49:45;;;;;;;0.97;0.67;;;;;;;-143.84;43.61;44961.47;5091019;28;20787;-58
2023/09/28 08:52:14;;;;;;;1.63;0.80;;;;;;;-143.84;44.07;44961.47;5090792;28;20428;-58
2023/09/28 08:54:43;;;;;;;0.90;0.50;;;;;;;-143.84;44.04;44971.00;5091069;28;20443;-58
2023/09/28 09:00:16;;;;;;;0.93;0.60;;;;;;;-143.84;44.15;44969.09;5091058;28;20435;-58
2023/09/28 09:03:02;;;;;;;1.10;0.60;;;;;;;-143.84;44.17;44948.16;5090659;28;20440;-58
2023/09/28 09:05:48;;;;;;;0.90;0.40;;;;;;;-143.84;42.29;44948.16;5090722;28;20455;-58
2023/09/28 09:08:15;;;;;;;0.93;0.70;;;;;;;-143.84;43.39;44942.44;5090656;28;20432;-58
2023/09/28 09:11:03;;;;;;;1.37;0.70;;;;;;;-143.84;43.61;44953.88;5090498;28;20431;-58
2023/09/28 09:13:30;;;;;;;1.17;0.90;;;;;;;-143.84;43.09;44929.09;5090625;28;20493;-58
2023/09/28 09:15:57;;;;;;;1.00;0.63;;;;;;;-143.84;43.23;44942.44;5090539;28;20480;-58
2023/09/28 09:18:27;;;;;;;0.90;0.80;;;;;;;-143.84;43.14;44936.72;5090331;28;20479;-58
2023/09/28 09:21:00;;;;;;;1.17;0.70;;;;;;;-143.84;42.59;44915.78;5090245;28;20447;-58
2023/09/28 09:23:28;;;;;;;0.80;0.40;;;;;;;-143.84;43.41;44965.28;5090310;28;20440;-58
2023/09/28 09:25:55;;;;;;;0.90;0.60;;;;;;;-143.84;42.60;44940.53;5090283;28;20930;-58
2023/09/28 09:28:32;;;;;;;0.90;0.60;;;;;;;-143.84;42.50;44932.91;5090175;28;20440;-58
2023/09/28 09:31:24;;;;;;;0.90;0.57;;;;;;;-143.84;42.28;44957.66;5090171;28;20448;-58
2023/09/28 09:33:52;;;;;;;0.90;0.53;;;;;;;-143.84;43.08;44965.28;5090254;28;20513;-58
2023/09/28 09:36:19;;;;;;;0.90;0.60;;;;;;;-143.84;42.49;44923.41;5090181;28;20532;-58
2023/09/28 09:38:50;;;;;;;1.00;0.73;;;;;;;-143.84;42.25;44938.63;5090204;28;20432;-58
2023/09/28 09:41:17;;;;;;;0.90;0.63;;;;;;;-143.84;42.91;44932.91;5090334;28;20482;-58
2023/09/28 09:44:04;;;;;;;0.90;0.60;;;;;;;-143.84;43.16;44963.38;5089321;28;20493;-58
2023/09/28 09:46:36;;;;;;;1.00;0.77;;;;;;;-143.84;43.28;44927.19;5090155;28;20510;-58
2023/09/28 09:49:07;;;;;;;1.30;0.80;;;;;;;-143.84;43.86;44921.50;5089951;28;20442;-58
2023/09/28 09:51:35;;;;;;;1.67;0.60;;;;;;;-143.84;42.56;44929.09;5089899;28;20440;-58
2023/09/28 09:54:02;;;;;;;1.40;0.80;;;;;;;-143.84;42.10;44904.34;5089716;28;20432;-58
2023/09/28 09:56:32;;;;;;;0.90;0.50;;;;;;;-143.84;41.99;44934.81;5089601;28;20592;-58
2023/09/28 09:59:01;;;;;;;1.43;0.80;;;;;;;-143.84;41.11;44931.00;5089616;28;20444;-58
2023/09/28 10:01:49;;;;;;;1.83;0.70;;;;;;;-143.84;40.88;44959.56;5089663;28;20832;-59
2023/09/28 10:04:17;;;;;;;0.90;0.60;;;;;;;-143.84;41.11;44923.41;5089639;28;20436;-58
2023/09/28 10:07:04;;;;;;;0.80;0.40;;;;;;;-143.84;41.40;44931.00;5089829;28;20448;-58
2023/09/28 10:09:32;;;;;;;0.80;0.40;;;;;;;-143.84;41.43;44927.19;5089707;28;20436;-58
2023/09/28 10:12:18;;;;;;;1.40;0.50;;;;;;;-143.84;41.77;44951.97;5089380;28;20436;-58
2023/09/28 10:17:31;;;;;;;1.10;0.40;;;;;;;-143.84;43.24;44961.47;5089337;28;20486;-58
2023/09/28 10:20:18;;;;;;;1.00;0.60;;;;;;;-143.84;42.81;44936.72;5089071;28;20520;-58
2023/09/28 10:22:47;;;;;;;1.03;0.60;;;;;;;-143.84;42.88;44969.09;5089555;28;20443;-58
2023/09/28 10:28:37;;;;;;;0.90;0.50;;;;;;;-143.84;43.23;44931.00;5089269;28;20480;-59
2023/09/28 10:31:30;;;;;;;0.80;0.40;;;;;;;-143.84;42.58;44950.06;5089045;28;20436;-58
2023/09/28 10:34:00;;;;;;;0.80;0.40;;;;;;;-143.84;42.24;44936.72;5088999;28;20447;-58
2023/09/28 10:39:14;;;;;;;0.90;0.50;;;;;;;-143.84;42.76;44967.19;5089300;28;20513;-58
2023/09/28 10:44:32;;;;;;;2.20;0.90;;;;;;;-143.84;43.03;44959.56;5089088;28;20428;-58
2023/09/28 10:50:20;;;;;;;0.90;0.50;;;;;;;-143.84;42.85;44948.16;5089045;28;20791;-58
2023/09/28 10:52:50;;;;;;;0.90;0.50;;;;;;;-143.84;43.22;44982.41;5088742;28;20443;-58
2023/09/28 10:55:17;;;;;;;0.90;0.50;;;;;;;-143.84;44.32;44980.53;5088902;28;20451;-58
2023/09/28 10:57:44;;;;;;;0.93;0.60;;;;;;;-143.84;44.83;44953.88;5089035;28;20552;-58
2023/09/28 11:00:12;;;;;;;0.90;0.50;;;;;;;-143.84;44.64;44988.13;5088413;28;20467;-58
2023/09/28 11:02:40;;;;;;;0.80;0.40;;;;;;;-143.84;44.84;44969.09;5088388;28;20440;-58
2023/09/28 11:07:55;;;;;;;0.90;0.57;;;;;;;-143.84;44.67;44978.63;5088493;28;20949;-58
2023/09/28 11:10:24;;;;;;;0.90;0.70;;;;;;;-143.84;45.07;44953.88;5087999;28;20453;-58
2023/09/28 11:12:52;;;;;;;1.27;1.10;;;;;;;-143.84;45.17;44999.56;5088249;28;20638;-58
2023/09/28 11:15:19;;;;;;;1.27;0.60;;;;;;;-143.84;45.83;44972.91;5078057;28;20479;-57
2023/09/28 11:17:47;;;;;;;0.90;0.50;;;;;;;-143.84;46.14;44988.13;5076870;28;20493;-58
2023/09/28 11:20:33;;;;;;;0.90;0.60;;;;;;;-143.84;45.47;44984.31;5068055;28;21090;-58
2023/09/28 11:23:03;;;;;;;0.80;0.40;;;;;;;-143.84;45.58;44969.09;5067721;28;20510;-57
2023/09/28 11:25:32;;;;;;;0.90;0.40;;;;;;;-143.84;46.19;44990.03;5068461;28;20506;-58
2023/09/28 11:27:59;;;;;;;0.90;0.70;;;;;;;-143.84;45.43;44969.09;5068464;28;20468;-57
2023/09/28 11:30:26;;;;;;;0.90;0.60;;;;;;;-143.84;46.56;44986.22;5068408;28;20452;-57
2023/09/28 11:35:39;;;;;;;0.90;0.50;;;;;;;-143.84;44.61;44980.53;5068219;28;20428;-58
2023/09/28 11:38:26;;;;;;;1.20;0.70;;;;;;;-143.84;44.11;44955.75;5067651;28;20477;-58
2023/09/28 11:40:54;;;;;;;0.80;0.40;;;;;;;-143.84;45.21;44969.09;5068368;28;20428;-57
2023/09/28 11:43:21;;;;;;;0.80;0.40;;;;;;;-143.84;44.35;44986.22;5068207;28;20433;-58
2023/09/28 11:46:06;;;;;;;0.90;0.40;;;;;;;-143.84;44.52;44984.31;5068030;28;20486;-58
2023/09/28 11:48:33;;;;;;;0.90;0.60;;;;;;;-143.84;45.11;44997.66;5068147;28;20451;-58
2023/09/28 11:51:03;;;;;;;1.00;0.53;;;;;;;-143.84;44.49;44972.91;5067232;28;20443;-58
2023/09/28 11:53:32;;;;;;;1.10;0.50;;;;;;;-143.84;44.30;44995.75;5067949;28;20445;-58
2023/09/28 11:56:01;;;;;;;3.13;0.57;;;;;;;-143.84;44.27;44980.53;5068078;28;20447;-58
2023/09/28 12:01:13;;;;;;;1.00;0.63;;;;;;;-143.84;44.92;45003.38;5068014;28;20462;-57
2023/09/28 12:03:40;;;;;;;1.00;0.60;;;;;;;-143.84;44.50;44980.53;5067887;28;20448;-58
2023/09/28 12:06:07;;;;;;;1.00;0.63;;;;;;;-143.84;44.57;44980.53;5067900;28;20449;-58
2023/09/28 12:08:36;;;;;;;1.00;0.57;;;;;;;-143.84;44.67;44993.84;5071545;28;20440;-57
2023/09/28 12:11:03;;;;;;;1.10;0.80;;;;;;;-143.84;45.16;44999.56;5071686;28;20483;-57
2023/09/28 12:13:31;;;;;;;0.80;0.40;;;;;;;-143.84;45.66;45001.47;5071657;28;20918;-57
2023/09/28 12:16:16;;;;;;;0.80;0.50;;;;;;;-143.84;45.44;44995.75;5071310;28;20421;-58
2023/09/28 12:21:46;;;;;;;1.00;0.57;;;;;;;-143.84;45.67;44974.81;5070899;28;20420;-57
2023/09/28 12:24:15;;;;;;;2.30;1.27;;;;;;;-143.84;46.81;44999.56;5071257;28;20485;-57
2023/09/28 12:27:01;;;;;;;1.10;0.63;;;;;;;-143.84;47.17;45003.38;5070992;28;20456;-57
2023/09/28 12:29:30;;;;;;;1.00;0.60;;;;;;;-143.84;47.18;44997.66;5071070;28;20911;-57
2023/09/28 12:34:42;;;;;;;0.80;0.40;;;;;;;-143.84;46.78;45007.19;5071213;28;20563;-57
2023/09/28 12:37:09;;;;;;;0.90;0.50;;;;;;;-143.84;47.17;45003.38;5070866;28;20472;-57
2023/09/28 12:39:38;;;;;;;1.00;0.50;;;;;;;-143.84;46.10;44988.13;5071097;28;20463;-57
2023/09/28 12:42:05;;;;;;;1.67;0.60;;;;;;;-143.84;47.43;45009.09;5070847;28;20448;-57
2023/09/28 12:50:02;;;;;;;0.90;0.50;;;;;;;-143.84;48.08;44995.75;5070637;28;20460;-57
2023/09/28 12:52:29;;;;;;;0.80;0.47;;;;;;;-143.84;48.57;45010.97;5070518;28;20998;-57
2023/09/28 12:54:58;;;;;;;0.90;0.40;;;;;;;-143.84;48.48;45014.78;5070768;28;20429;-57
2023/09/28 13:00:11;;;;;;;1.20;1.03;;;;;;;-143.84;47.62;45007.19;5070778;28;20945;-57
2023/09/28 13:02:38;;;;;;;0.93;0.53;;;;;;;-143.84;47.72;45020.50;5070717;28;20543;-57
2023/09/28 13:05:06;;;;;;;1.50;0.80;;;;;;;-143.84;47.62;44995.75;5069816;28;20444;-57
2023/09/28 13:07:33;;;;;;;0.90;0.60;;;;;;;-143.84;48.55;45014.78;5070347;28;20539;-57
2023/09/28 13:10:04;;;;;;;0.80;0.50;;;;;;;-143.84;50.00;45010.97;5070579;28;20515;-57
2023/09/28 13:12:31;;;;;;;1.80;0.77;;;;;;;-143.84;49.57;45024.31;5070363;28;20528;-57
2023/09/28 13:14:58;;;;;;;1.10;0.73;;;;;;;-143.84;48.57;45020.50;5070272;28;20433;-57
2023/09/28 13:17:27;;;;;;;1.43;0.70;;;;;;;-143.84;48.60;45022.41;5070162;28;20492;-57
2023/09/28 13:19:55;;;;;;;0.90;0.60;;;;;;;-143.84;48.98;44995.75;5068946;28;20542;-58
2023/09/28 13:22:23;;;;;;;0.87;0.53;;;;;;;-143.84;48.40;45007.19;5070538;28;20444;-58
2023/09/28 13:24:50;;;;;;;0.90;0.50;;;;;;;-143.84;47.60;45003.38;5070498;28;21166;-57
2023/09/28 13:27:19;;;;;;;0.97;0.70;;;;;;;-143.84;48.72;45016.69;5070216;28;20805;-58